Time;durP1;ratioP1;P1;durP2;ratioP2;P2;SDS_P1;SDS_P2;PMS_P1;PMS_P2;Temp;Humidity;BMP_temperature;BMP_pressure;BME280_temperature;BME280_humidity;BME280_pressure;Samples;Min_cycle;Max_cycle;Signal;HPM_P1;HPM_P2
2021/10/14 00:01:53;;;;;;;15.55;8.15;;;7.80;70.60;;;;;;6275744;22;20003;-73
2021/10/14 00:04:19;;;;;;;10.55;7.78;;;7.80;70.70;;;;;;6274284;22;19999;-73
2021/10/14 00:06:45;;;;;;;11.05;7.85;;;7.80;70.70;;;;;;6275825;22;20000;-73
2021/10/14 00:09:15;;;;;;;10.00;7.10;;;7.70;70.50;;;;;;6276075;22;20073;-73
2021/10/14 00:11:41;;;;;;;9.32;7.15;;;7.70;70.50;;;;;;6275589;22;20093;-73
2021/10/14 00:14:07;;;;;;;10.38;7.45;;;7.70;70.50;;;;;;6275877;22;20030;-73
2021/10/14 00:16:33;;;;;;;10.48;7.70;;;7.70;70.50;;;;;;6275589;22;20071;-73
2021/10/14 00:19:00;;;;;;;13.23;7.93;;;7.70;70.60;;;;;;6275684;22;19999;-73
2021/10/14 00:21:26;;;;;;;15.20;8.32;;;7.70;70.70;;;;;;6275814;22;20059;-73
2021/10/14 00:23:52;;;;;;;11.02;7.32;;;7.70;70.80;;;;;;6275468;22;20399;-73
2021/10/14 00:26:18;;;;;;;10.55;7.10;;;7.60;70.70;;;;;;6275752;22;20000;-73
2021/10/14 00:28:44;;;;;;;10.32;7.55;;;7.60;70.70;;;;;;6275550;22;19996;-73
2021/10/14 00:31:10;;;;;;;10.98;8.23;;;7.60;70.70;;;;;;6273427;22;20439;-72
2021/10/14 00:33:35;;;;;;;14.05;8.18;;;7.60;70.80;;;;;;6272872;22;20467;-73
2021/10/14 00:36:01;;;;;;;12.43;7.93;;;7.60;70.70;;;;;;6273078;22;20004;-73
2021/10/14 00:38:27;;;;;;;12.77;8.20;;;7.60;70.70;;;;;;6271608;22;20074;-73
2021/10/14 00:40:52;;;;;;;11.88;7.78;;;7.50;70.70;;;;;;6275186;22;20015;-73
2021/10/14 00:43:18;;;;;;;12.25;8.23;;;7.50;70.80;;;;;;6276479;22;20053;-73
2021/10/14 00:45:44;;;;;;;10.75;8.00;;;7.50;70.80;;;;;;6276111;22;20058;-73
2021/10/14 00:48:10;;;;;;;14.55;9.77;;;7.50;70.80;;;;;;6276669;22;20004;-72
2021/10/14 00:50:36;;;;;;;16.30;9.05;;;7.40;70.70;;;;;;6276673;22;20053;-72
2021/10/14 00:53:02;;;;;;;16.42;10.82;;;7.40;70.90;;;;;;6276988;22;20378;-73
2021/10/14 00:55:29;;;;;;;16.10;10.95;;;7.40;71.10;;;;;;6275290;22;20008;-73
2021/10/14 00:57:55;;;;;;;20.02;11.82;;;7.40;71.40;;;;;;6277510;22;19999;-73
2021/10/14 01:00:20;;;;;;;18.42;11.55;;;7.40;71.60;;;;;;6276967;22;20054;-73
2021/10/14 01:02:46;;;;;;;17.98;11.77;;;7.40;71.70;;;;;;6275762;22;20364;-74
2021/10/14 01:05:12;;;;;;;20.33;12.27;;;7.40;71.70;;;;;;6275017;22;20423;-73
2021/10/14 01:07:39;;;;;;;21.83;12.98;;;7.40;71.70;;;;;;6275809;22;20063;-72
2021/10/14 01:10:05;;;;;;;20.33;13.25;;;7.40;71.60;;;;;;6277193;22;20050;-73
2021/10/14 01:12:33;;;;;;;21.33;13.48;;;7.40;71.60;;;;;;6277080;22;20347;-73
2021/10/14 01:14:59;;;;;;;19.35;12.48;;;7.40;71.70;;;;;;6277257;22;20007;-73
2021/10/14 01:17:24;;;;;;;19.33;12.35;;;7.40;71.80;;;;;;6275774;22;20327;-72
2021/10/14 01:19:50;;;;;;;24.10;13.75;;;7.40;71.80;;;;;;6275636;22;20011;-73
2021/10/14 01:22:16;;;;;;;47.42;15.60;;;7.50;71.90;;;;;;6277193;22;20010;-73
2021/10/14 01:24:46;;;;;;;30.25;16.17;;;7.50;71.90;;;;;;6276767;22;19995;-73
2021/10/14 01:27:12;;;;;;;23.65;13.02;;;7.50;72.00;;;;;;6277133;22;20083;-73
2021/10/14 01:29:37;;;;;;;25.95;15.45;;;7.50;72.10;;;;;;6277400;22;20056;-73
2021/10/14 01:32:04;;;;;;;21.77;13.52;;;7.60;72.10;;;;;;6273859;22;20008;-72
2021/10/14 01:34:30;;;;;;;38.10;14.73;;;7.60;72.20;;;;;;6275890;22;20004;-72
2021/10/14 01:36:56;;;;;;;37.00;15.88;;;7.70;72.30;;;;;;6276186;22;20367;-72
2021/10/14 01:39:22;;;;;;;46.30;14.35;;;7.70;72.20;;;;;;6276585;22;20000;-72
2021/10/14 01:41:49;;;;;;;24.48;13.77;;;7.70;72.10;;;;;;6276311;22;20077;-73
2021/10/14 01:44:16;;;;;;;40.60;14.20;;;7.80;72.10;;;;;;6276482;22;19996;-73
2021/10/14 01:46:41;;;;;;;27.27;12.23;;;7.80;71.90;;;;;;6276473;22;20331;-72
2021/10/14 01:49:07;;;;;;;31.60;11.68;;;7.90;71.80;;;;;;6276003;22;19996;-72
2021/10/14 01:51:33;;;;;;;22.75;11.85;;;7.90;71.60;;;;;;6275332;22;20030;-72
2021/10/14 01:53:59;;;;;;;17.38;10.40;;;7.90;71.40;;;;;;6275890;22;20042;-72
2021/10/14 01:56:25;;;;;;;28.33;11.40;;;7.90;71.40;;;;;;6276421;22;20000;-72
2021/10/14 01:58:50;;;;;;;18.63;11.20;;;8.00;71.30;;;;;;6276231;22;20003;-72
2021/10/14 02:01:16;;;;;;;18.55;10.25;;;8.00;71.30;;;;;;6276452;22;20003;-72
2021/10/14 02:03:42;;;;;;;20.98;11.10;;;8.00;71.00;;;;;;6274581;22;20003;-72
2021/10/14 02:06:08;;;;;;;37.28;11.20;;;8.00;70.80;;;;;;6275891;22;20069;-72
2021/10/14 02:08:33;;;;;;;15.93;10.88;;;8.00;70.60;;;;;;6276265;22;19999;-72
2021/10/14 02:10:59;;;;;;;18.48;11.48;;;8.00;70.40;;;;;;6276319;22;20453;-72
2021/10/14 02:13:25;;;;;;;22.27;10.63;;;8.00;70.20;;;;;;6276223;22;20069;-72
2021/10/14 02:15:50;;;;;;;15.60;10.15;;;7.90;70.00;;;;;;6276259;22;20004;-73
2021/10/14 02:18:16;;;;;;;19.30;11.23;;;7.90;70.00;;;;;;6276340;22;20035;-72
2021/10/14 02:20:42;;;;;;;17.17;11.30;;;7.90;69.90;;;;;;6276147;22;20004;-72
2021/10/14 02:23:08;;;;;;;29.70;12.23;;;7.80;69.80;;;;;;6276040;22;20003;-72
2021/10/14 02:25:33;;;;;;;16.92;10.25;;;7.80;69.90;;;;;;6276141;22;20053;-72
2021/10/14 02:27:59;;;;;;;19.17;10.45;;;7.80;69.90;;;;;;6276113;22;20000;-72
2021/10/14 02:30:25;;;;;;;18.02;10.32;;;7.80;69.80;;;;;;6276006;22;20086;-72
2021/10/14 02:32:51;;;;;;;22.00;11.50;;;7.80;69.70;;;;;;6275856;22;20419;-72
2021/10/14 02:35:16;;;;;;;19.52;10.20;;;7.70;69.60;;;;;;6276025;22;20003;-72
2021/10/14 02:37:42;;;;;;;22.52;10.45;;;7.70;69.50;;;;;;6274438;22;20007;-72
2021/10/14 02:40:09;;;;;;;17.42;11.25;;;7.70;69.60;;;;;;6275766;22;20004;-72
2021/10/14 02:42:34;;;;;;;18.58;10.90;;;7.70;69.50;;;;;;6275961;22;20067;-72
2021/10/14 02:45:01;;;;;;;20.58;11.65;;;7.60;69.50;;;;;;6274420;22;20019;-72
2021/10/14 02:47:26;;;;;;;23.65;12.55;;;7.60;70.20;;;;;;6275984;22;19995;-72
2021/10/14 02:49:52;;;;;;;14.65;8.82;;;7.60;69.50;;;;;;6275872;22;20067;-72
2021/10/14 02:52:18;;;;;;;15.27;10.18;;;7.60;69.60;;;;;;6275970;22;20327;-72
2021/10/14 02:54:44;;;;;;;14.60;9.27;;;7.60;69.60;;;;;;6275943;22;20027;-72
2021/10/14 02:57:10;;;;;;;15.18;9.60;;;7.60;69.60;;;;;;6275722;22;20027;-72
2021/10/14 02:59:35;;;;;;;14.50;9.07;;;7.60;69.40;;;;;;6275860;22;19992;-72
2021/10/14 03:02:01;;;;;;;12.32;8.35;;;7.60;69.40;;;;;;6275362;22;20395;-72
2021/10/14 03:04:27;;;;;;;14.82;9.25;;;7.60;69.40;;;;;;6275182;22;20030;-72
2021/10/14 03:06:53;;;;;;;11.50;7.65;;;7.60;69.40;;;;;;6275666;22;19995;-72
2021/10/14 03:09:18;;;;;;;12.68;8.15;;;7.60;69.40;;;;;;6275703;22;20000;-72
2021/10/14 03:11:44;;;;;;;14.85;9.93;;;7.60;69.50;;;;;;6275466;22;20016;-72
2021/10/14 03:14:10;;;;;;;14.63;9.80;;;7.50;69.50;;;;;;6275675;22;20003;-72
2021/10/14 03:16:36;;;;;;;13.48;8.93;;;7.50;69.40;;;;;;6275748;22;19996;-72
2021/10/14 03:19:02;;;;;;;12.55;8.55;;;7.50;69.40;;;;;;6273727;22;20297;-72
2021/10/14 03:21:28;;;;;;;12.75;8.15;;;7.50;69.50;;;;;;6275640;22;20042;-72
2021/10/14 03:23:53;;;;;;;16.50;11.13;;;7.50;69.60;;;;;;6275322;22;20003;-72
2021/10/14 03:26:19;;;;;;;13.65;8.50;;;7.60;69.70;;;;;;6275641;22;20027;-72
2021/10/14 03:28:45;;;;;;;18.73;12.13;;;7.60;69.80;;;;;;6275606;22;20003;-71
2021/10/14 03:31:11;;;;;;;19.27;11.98;;;7.60;69.90;;;;;;6275497;22;20067;-72
2021/10/14 03:33:37;;;;;;;16.95;11.02;;;7.60;70.00;;;;;;6273305;22;20080;-72
2021/10/14 03:36:07;;;;;;;19.02;12.48;;;7.70;70.20;;;;;;6273709;22;20007;-72
2021/10/14 03:38:32;;;;;;;17.77;11.45;;;7.70;70.20;;;;;;6275857;22;20106;-72
2021/10/14 03:40:58;;;;;;;17.55;11.73;;;7.70;70.30;;;;;;6275265;22;20014;-71
2021/10/14 03:43:24;;;;;;;26.98;12.65;;;7.80;70.30;;;;;;6275346;22;20007;-72
2021/10/14 03:45:50;;;;;;;31.70;14.63;;;7.80;70.30;;;;;;6275332;22;20007;-71
2021/10/14 03:48:15;;;;;;;33.78;13.05;;;7.80;70.30;;;;;;6275189;22;20069;-72
2021/10/14 03:50:42;;;;;;;20.33;12.60;;;7.80;70.20;;;;;;6275226;22;20061;-73
2021/10/14 03:53:09;;;;;;;21.70;12.10;;;7.90;70.30;;;;;;6275236;22;20075;-72
2021/10/14 03:55:35;;;;;;;26.10;14.35;;;7.90;70.30;;;;;;6275438;22;20026;-72
2021/10/14 03:58:01;;;;;;;24.23;13.55;;;7.90;70.20;;;;;;6275105;22;20014;-73
2021/10/14 04:00:27;;;;;;;20.85;12.60;;;8.00;70.30;;;;;;6275326;22;20066;-73
2021/10/14 04:02:52;;;;;;;19.30;12.43;;;8.00;70.20;;;;;;6273549;22;20027;-72
2021/10/14 04:05:18;;;;;;;21.20;12.95;;;8.00;70.10;;;;;;6273511;22;20023;-72
2021/10/14 04:07:44;;;;;;;20.45;13.30;;;8.00;70.10;;;;;;6274857;22;20019;-72
2021/10/14 04:10:10;;;;;;;18.98;12.95;;;8.10;70.20;;;;;;6274981;22;20003;-73
2021/10/14 04:12:36;;;;;;;17.77;12.25;;;8.10;70.00;;;;;;6274928;22;20081;-72
2021/10/14 04:15:03;;;;;;;22.55;14.02;;;8.10;70.00;;;;;;6274902;22;20003;-71
2021/10/14 04:17:29;;;;;;;24.92;13.85;;;8.10;69.70;;;;;;6274923;22;20308;-71
2021/10/14 04:19:54;;;;;;;19.63;13.25;;;8.20;69.70;;;;;;6274999;22;20008;-72
2021/10/14 04:22:23;;;;;;;18.63;12.55;;;8.20;69.50;;;;;;6273359;22;20107;-72
2021/10/14 04:24:49;;;;;;;20.17;12.82;;;8.20;69.60;;;;;;6274954;22;20007;-71
2021/10/14 04:27:15;;;;;;;22.02;14.20;;;8.20;69.50;;;;;;6275075;22;20000;-72
2021/10/14 04:29:41;;;;;;;21.30;13.90;;;8.20;69.50;;;;;;6275263;22;19995;-72
2021/10/14 04:32:09;;;;;;;21.20;11.95;;;8.20;69.30;;;;;;6274731;22;19999;-72
2021/10/14 04:34:35;;;;;;;18.58;11.57;;;8.30;69.40;;;;;;6274849;22;20004;-72
2021/10/14 04:37:07;;;;;;;21.70;13.18;;;8.30;69.50;;;;;;6273411;22;20079;-72
2021/10/14 04:39:35;;;;;;;17.90;11.60;;;8.40;69.50;;;;;;6275104;22;20000;-72
2021/10/14 04:42:01;;;;;;;20.35;12.15;;;8.40;69.30;;;;;;6274993;22;20004;-71
2021/10/14 04:44:27;;;;;;;19.67;12.68;;;8.40;69.20;;;;;;6275067;22;20004;-73
2021/10/14 04:46:53;;;;;;;21.65;13.02;;;8.50;69.00;;;;;;6275119;22;20000;-71
2021/10/14 04:49:19;;;;;;;19.33;11.85;;;8.50;68.90;;;;;;6274507;22;20003;-72
2021/10/14 04:51:45;;;;;;;18.67;12.43;;;8.50;68.70;;;;;;6275059;22;20000;-72
2021/10/14 04:54:10;;;;;;;16.48;10.73;;;8.50;68.60;;;;;;6274962;22;20000;-72
2021/10/14 04:56:36;;;;;;;19.05;12.43;;;8.50;68.50;;;;;;6274937;22;20402;-71
2021/10/14 04:59:02;;;;;;;16.70;10.60;;;8.50;68.50;;;;;;6274668;22;20105;-72
2021/10/14 05:01:28;;;;;;;17.88;10.70;;;8.40;68.30;;;;;;6274936;22;20083;-72
2021/10/14 05:03:53;;;;;;;17.45;9.68;;;8.50;68.40;;;;;;6274634;22;20419;-71
2021/10/14 05:06:19;;;;;;;14.20;8.95;;;8.50;68.50;;;;;;6274808;22;20075;-72
2021/10/14 05:08:45;;;;;;;13.52;8.93;;;8.50;68.40;;;;;;6274757;22;19996;-71
2021/10/14 05:11:12;;;;;;;14.52;8.40;;;8.50;68.40;;;;;;6273193;22;20054;-71
2021/10/14 05:13:38;;;;;;;13.50;9.05;;;8.50;68.50;;;;;;6274676;22;20023;-71
2021/10/14 05:16:05;;;;;;;11.52;7.78;;;8.50;68.40;;;;;;6274768;22;20003;-72
2021/10/14 05:18:31;;;;;;;15.85;9.57;;;8.60;68.40;;;;;;6274465;22;20007;-72
2021/10/14 05:20:57;;;;;;;13.02;8.80;;;8.60;68.50;;;;;;6273137;22;20004;-71
2021/10/14 05:23:23;;;;;;;11.07;7.97;;;8.70;68.60;;;;;;6274644;22;20004;-71
2021/10/14 05:25:48;;;;;;;10.90;7.80;;;8.70;68.60;;;;;;6273394;22;20423;-72
2021/10/14 05:28:15;;;;;;;13.88;9.10;;;8.70;68.60;;;;;;6276546;22;20071;-72
2021/10/14 05:30:41;;;;;;;11.73;8.02;;;8.70;68.60;;;;;;6276646;22;19999;-71
2021/10/14 05:33:07;;;;;;;19.30;9.07;;;8.80;68.60;;;;;;6276282;22;20034;-71
2021/10/14 05:35:33;;;;;;;12.30;8.98;;;8.80;68.50;;;;;;6276663;22;20324;-72
2021/10/14 05:37:59;;;;;;;14.73;8.45;;;8.90;68.50;;;;;;6276494;22;20008;-71
2021/10/14 05:40:24;;;;;;;17.00;9.40;;;8.90;68.30;;;;;;6276696;22;20412;-71
2021/10/14 05:42:50;;;;;;;14.70;9.82;;;8.90;68.20;;;;;;6276558;22;20446;-72
2021/10/14 05:45:16;;;;;;;12.45;9.13;;;9.00;68.20;;;;;;6274959;22;20327;-72
2021/10/14 05:47:42;;;;;;;13.55;9.40;;;9.00;68.10;;;;;;6274436;22;20006;-72
2021/10/14 05:50:08;;;;;;;14.00;9.63;;;9.00;68.00;;;;;;6274683;22;20091;-72
2021/10/14 05:52:33;;;;;;;15.40;9.90;;;9.00;68.10;;;;;;6274856;22;20026;-72
2021/10/14 05:54:59;;;;;;;18.65;10.18;;;9.10;68.20;;;;;;6276322;22;20003;-71
2021/10/14 05:57:25;;;;;;;13.20;9.25;;;9.10;68.10;;;;;;6276020;22;20568;-71
2021/10/14 05:59:51;;;;;;;14.55;9.70;;;9.10;68.30;;;;;;6274255;22;20003;-71
2021/10/14 06:02:17;;;;;;;14.65;9.40;;;9.20;68.30;;;;;;6274392;22;20003;-70
2021/10/14 06:04:43;;;;;;;14.70;9.90;;;9.20;68.30;;;;;;6276005;22;20049;-70
2021/10/14 06:07:09;;;;;;;20.48;10.90;;;9.30;68.40;;;;;;6274557;22;20320;-71
2021/10/14 06:09:35;;;;;;;14.95;9.93;;;9.40;68.20;;;;;;6275860;22;20020;-70
2021/10/14 06:12:00;;;;;;;14.70;9.95;;;9.40;68.20;;;;;;6275835;22;20077;-71
2021/10/14 06:14:26;;;;;;;15.82;10.50;;;9.50;68.50;;;;;;6276068;22;20002;-71
2021/10/14 06:16:52;;;;;;;21.45;10.82;;;9.60;68.50;;;;;;6274330;22;20032;-71
2021/10/14 06:19:18;;;;;;;15.30;11.43;;;9.60;68.20;;;;;;6275753;22;20057;-72
2021/10/14 06:21:43;;;;;;;15.02;10.48;;;9.60;67.90;;;;;;6276074;22;20328;-71
2021/10/14 06:24:12;;;;;;;13.88;9.93;;;9.70;67.90;;;;;;6275753;22;20435;-72
2021/10/14 06:26:38;;;;;;;14.65;9.90;;;9.80;67.90;;;;;;6274604;22;20007;-72
2021/10/14 06:29:03;;;;;;;16.00;10.93;;;9.80;67.80;;;;;;6275809;22;20004;-72
2021/10/14 06:31:29;;;;;;;16.98;10.73;;;9.90;67.60;;;;;;6275587;22;20026;-70
2021/10/14 06:33:55;;;;;;;12.98;9.50;;;9.90;67.60;;;;;;6275686;22;20457;-72
2021/10/14 06:36:21;;;;;;;16.38;10.65;;;9.90;67.60;;;;;;6273626;22;20086;-72
2021/10/14 06:38:47;;;;;;;13.88;10.07;;;10.00;67.70;;;;;;6273561;22;20034;-70
2021/10/14 06:41:14;;;;;;;18.05;11.68;;;10.00;67.70;;;;;;6274807;22;20007;-70
2021/10/14 06:43:40;;;;;;;15.40;11.02;;;10.00;67.50;;;;;;6275241;22;20331;-71
2021/10/14 06:46:06;;;;;;;15.57;10.57;;;10.10;67.40;;;;;;6275328;22;20011;-74
2021/10/14 06:48:31;;;;;;;16.77;10.95;;;10.10;67.40;;;;;;6274721;22;19999;-71
2021/10/14 06:50:58;;;;;;;17.58;10.23;;;10.20;67.50;;;;;;6274209;22;20004;-71
2021/10/14 06:53:25;;;;;;;16.45;12.13;;;10.20;67.60;;;;;;6273767;22;20004;-71
2021/10/14 06:55:51;;;;;;;15.02;10.98;;;10.30;67.60;;;;;;6275358;22;20431;-70
2021/10/14 06:58:17;;;;;;;17.13;12.10;;;10.30;67.60;;;;;;6275042;22;20337;-71
2021/10/14 07:00:43;;;;;;;22.60;12.35;;;10.30;67.30;;;;;;6275191;22;20008;-71
2021/10/14 07:03:08;;;;;;;17.98;11.95;;;10.30;67.20;;;;;;6274933;22;20086;-71
2021/10/14 07:05:34;;;;;;;23.33;11.98;;;10.40;67.20;;;;;;6275574;22;19995;-71
2021/10/14 07:08:00;;;;;;;19.25;11.65;;;10.40;67.30;;;;;;6275253;22;20007;-72
2021/10/14 07:10:26;;;;;;;17.17;11.98;;;10.40;67.30;;;;;;6275257;22;20545;-71
2021/10/14 07:12:52;;;;;;;16.95;11.27;;;10.50;67.20;;;;;;6274808;22;20026;-71
2021/10/14 07:15:19;;;;;;;16.15;12.18;;;10.50;67.00;;;;;;6273748;22;20009;-71
2021/10/14 07:17:45;;;;;;;19.50;12.57;;;10.50;67.20;;;;;;6275150;22;20035;-72
2021/10/14 07:20:11;;;;;;;16.88;10.93;;;10.50;67.00;;;;;;6275079;22;20305;-72
2021/10/14 07:22:37;;;;;;;15.77;11.68;;;10.50;67.10;;;;;;6274856;22;20006;-72
2021/10/14 07:25:03;;;;;;;16.23;11.40;;;10.50;67.00;;;;;;6274858;22;20000;-71
2021/10/14 07:27:28;;;;;;;16.90;11.40;;;10.60;67.10;;;;;;6274409;22;19992;-72
2021/10/14 07:29:54;;;;;;;18.75;12.63;;;10.60;67.30;;;;;;6274302;22;20063;-71
2021/10/14 07:32:20;;;;;;;18.80;11.77;;;10.60;67.30;;;;;;6274533;22;20005;-72
2021/10/14 07:34:46;;;;;;;19.60;12.75;;;10.60;67.10;;;;;;6274974;22;20010;-72
2021/10/14 07:37:13;;;;;;;15.75;11.55;;;10.60;66.90;;;;;;6275091;22;20003;-72
2021/10/14 07:39:39;;;;;;;17.77;12.77;;;10.60;67.10;;;;;;6274673;22;20004;-71
2021/10/14 07:42:05;;;;;;;16.92;11.52;;;10.60;67.00;;;;;;6275202;22;20055;-72
2021/10/14 07:44:31;;;;;;;15.52;11.25;;;10.70;67.20;;;;;;6275022;22;19996;-72
2021/10/14 07:46:57;;;;;;;22.75;13.35;;;10.70;67.90;;;;;;6274632;22;20000;-71
2021/10/14 07:49:23;;;;;;;23.30;13.95;;;10.70;67.60;;;;;;6274979;22;20026;-71
2021/10/14 07:51:49;;;;;;;22.40;14.05;;;10.80;67.50;;;;;;6274868;22;20000;-72
2021/10/14 07:54:15;;;;;;;20.25;12.90;;;10.80;67.30;;;;;;6275374;22;19992;-72
2021/10/14 07:56:41;;;;;;;20.50;12.57;;;10.90;67.60;;;;;;6275851;22;19996;-71
2021/10/14 07:59:06;;;;;;;19.65;13.50;;;11.00;67.90;;;;;;6275272;22;20443;-71
2021/10/14 08:01:32;;;;;;;19.02;12.75;;;11.00;67.60;;;;;;6276360;22;20297;-72
2021/10/14 08:03:58;;;;;;;19.98;13.27;;;11.00;67.30;;;;;;6274528;22;20030;-72
2021/10/14 08:06:24;;;;;;;20.00;14.82;;;11.10;67.40;;;;;;6274748;22;20008;-72
2021/10/14 08:08:50;;;;;;;20.83;14.23;;;11.20;67.30;;;;;;6272793;22;20004;-72
2021/10/14 08:11:15;;;;;;;17.70;11.95;;;11.20;66.90;;;;;;6274681;22;20000;-72
2021/10/14 08:13:41;;;;;;;17.23;12.43;;;11.30;67.00;;;;;;6272731;22;20027;-70
2021/10/14 08:16:07;;;;;;;17.38;12.00;;;11.30;67.00;;;;;;6274182;22;20004;-71
2021/10/14 08:18:33;;;;;;;20.63;13.82;;;11.40;67.10;;;;;;6274238;22;20445;-72
2021/10/14 08:20:59;;;;;;;19.95;12.68;;;11.40;66.90;;;;;;6272933;22;20008;-72
2021/10/14 08:23:27;;;;;;;21.77;13.90;;;11.50;67.10;;;;;;6274211;22;20332;-71
2021/10/14 08:25:53;;;;;;;20.08;13.98;;;11.60;67.20;;;;;;6274803;22;20082;-71
2021/10/14 08:28:20;;;;;;;18.45;12.85;;;11.60;66.90;;;;;;6273549;22;19992;-72
2021/10/14 08:30:50;;;;;;;21.73;13.23;;;11.70;66.60;;;;;;6273203;22;20090;-71
2021/10/14 08:33:16;;;;;;;23.52;14.50;;;11.70;66.70;;;;;;6274837;22;20075;-71
2021/10/14 08:35:42;;;;;;;22.25;14.18;;;11.80;66.50;;;;;;6275009;22;20004;-72
2021/10/14 08:38:10;;;;;;;19.45;13.13;;;11.80;66.30;;;;;;6274786;22;20331;-72
2021/10/14 08:40:37;;;;;;;18.55;12.38;;;11.80;66.00;;;;;;6272912;22;20317;-72
2021/10/14 08:43:11;;;;;;;16.13;11.43;;;11.80;65.70;;;;;;6274738;22;20098;-72
2021/10/14 08:45:39;;;;;;;21.42;12.45;;;11.80;66.00;;;;;;6275186;22;20493;-72
2021/10/14 08:48:06;;;;;;;17.80;10.90;;;11.90;66.10;;;;;;6274819;22;19996;-72
2021/10/14 08:50:33;;;;;;;16.23;11.27;;;12.00;66.10;;;;;;6274921;22;20075;-70
2021/10/14 08:52:59;;;;;;;15.70;11.00;;;12.00;65.70;;;;;;6273043;22;20304;-71
2021/10/14 08:55:27;;;;;;;16.48;12.13;;;12.00;66.10;;;;;;6274772;22;20007;-71
2021/10/14 08:57:53;;;;;;;20.13;11.85;;;12.10;65.40;;;;;;6274780;22;19996;-71
2021/10/14 09:00:19;;;;;;;17.05;11.85;;;12.10;65.40;;;;;;6274802;22;19999;-72
2021/10/14 09:02:45;;;;;;;18.77;11.60;;;12.10;65.20;;;;;;6276750;22;20010;-72
2021/10/14 09:05:14;;;;;;;19.90;11.60;;;12.10;64.90;;;;;;6276780;22;19999;-72
2021/10/14 09:07:41;;;;;;;17.83;11.70;;;12.10;64.80;;;;;;6275204;22;20011;-72
2021/10/14 09:10:11;;;;;;;16.52;11.75;;;12.10;64.60;;;;;;6276624;22;20006;-71
2021/10/14 09:12:42;;;;;;;16.98;10.98;;;12.10;64.50;;;;;;6276404;22;20035;-71
2021/10/14 09:15:16;;;;;;;15.38;11.38;;;12.10;64.70;;;;;;6276583;22;20129;-71
2021/10/14 09:17:53;;;;;;;18.02;12.73;;;12.10;64.90;;;;;;6275063;22;20098;-72
2021/10/14 09:20:37;;;;;;;16.55;11.40;;;12.20;65.10;;;;;;6276702;22;20003;-71
2021/10/14 09:23:17;;;;;;;16.15;11.23;;;12.30;65.50;;;;;;6276560;22;20423;-72
2021/10/14 09:25:50;;;;;;;16.58;11.13;;;12.40;65.30;;;;;;6276333;22;19999;-72
2021/10/14 09:28:19;;;;;;;15.48;11.05;;;12.50;65.40;;;;;;6276522;22;20419;-72
2021/10/14 09:30:48;;;;;;;14.10;10.63;;;12.60;65.10;;;;;;6275031;22;20443;-72
2021/10/14 09:33:40;;;;;;;16.55;10.68;;;12.60;64.70;;;;;;6276469;22;19996;-71
2021/10/14 09:36:11;;;;;;;14.02;10.25;;;12.70;64.80;;;;;;6276381;22;20062;-71
2021/10/14 09:38:37;;;;;;;14.35;10.10;;;12.80;63.90;;;;;;6276217;22;19999;-72
2021/10/14 09:41:04;;;;;;;15.20;10.48;;;12.90;63.50;;;;;;6276462;22;20015;-72
2021/10/14 09:43:30;;;;;;;13.75;9.75;;;12.90;63.40;;;;;;6276506;22;20004;-71
2021/10/14 09:45:56;;;;;;;13.63;9.75;;;12.90;63.30;;;;;;6276443;22;19999;-70
2021/10/14 09:48:22;;;;;;;14.73;9.35;;;12.90;63.00;;;;;;6276273;22;20030;-73
2021/10/14 09:50:48;;;;;;;13.05;8.75;;;13.00;63.00;;;;;;6276368;22;20420;-71
2021/10/14 09:53:16;;;;;;;13.77;8.95;;;13.00;63.10;;;;;;6276382;22;20000;-71
2021/10/14 09:55:42;;;;;;;13.57;9.98;;;13.00;63.10;;;;;;6276504;22;20446;-71
2021/10/14 09:58:09;;;;;;;15.23;9.63;;;13.00;63.10;;;;;;6274723;22;20075;-71
2021/10/14 10:00:38;;;;;;;14.27;9.65;;;13.00;63.20;;;;;;6276486;22;19999;-71
2021/10/14 10:03:08;;;;;;;13.60;9.27;;;13.00;63.30;;;;;;6275338;22;20090;-72
2021/10/14 10:05:35;;;;;;;14.52;9.93;;;13.00;63.40;;;;;;6276473;22;20423;-71
2021/10/14 10:08:08;;;;;;;18.48;10.63;;;13.00;63.50;;;;;;6276106;22;19992;-72
2021/10/14 10:10:37;;;;;;;17.00;10.70;;;13.10;63.70;;;;;;6276146;22;20003;-71
2021/10/14 10:13:04;;;;;;;14.75;9.13;;;13.10;63.90;;;;;;6274033;22;20042;-72
2021/10/14 10:16:10;;;;;;;13.07;8.98;;;13.20;63.50;;;;;;6276199;22;19999;-71
2021/10/14 10:18:39;;;;;;;14.60;9.00;;;13.20;63.50;;;;;;6276053;22;19995;-71
2021/10/14 10:21:07;;;;;;;15.60;9.13;;;13.30;63.30;;;;;;6276066;22;20050;-70
2021/10/14 10:23:49;;;;;;;11.57;8.88;;;13.30;62.80;;;;;;6276335;22;20316;-71
2021/10/14 10:26:33;;;;;;;14.00;8.65;;;13.30;62.60;;;;;;6276095;22;19999;-71
2021/10/14 10:29:16;;;;;;;14.38;8.73;;;13.40;62.20;;;;;;6273262;22;20070;-70
2021/10/14 10:31:55;;;;;;;11.27;8.67;;;13.40;61.80;;;;;;6276054;22;20000;-72
2021/10/14 10:34:39;;;;;;;12.80;8.00;;;13.40;62.20;;;;;;6275782;22;20214;-71
2021/10/14 10:37:25;;;;;;;16.15;8.65;;;13.50;62.30;;;;;;6275987;22;20431;-70
2021/10/14 10:39:53;;;;;;;11.43;9.05;;;13.50;62.00;;;;;;6276503;22;19996;-71
2021/10/14 10:42:40;;;;;;;12.25;8.60;;;13.60;62.10;;;;;;6276401;22;20026;-70
2021/10/14 10:45:10;;;;;;;12.50;8.43;;;13.70;61.80;;;;;;6276153;22;20000;-72
2021/10/14 10:47:41;;;;;;;16.27;9.32;;;13.70;61.90;;;;;;6276121;22;20374;-71
2021/10/14 10:50:11;;;;;;;11.57;8.20;;;13.80;61.80;;;;;;6276275;22;20308;-71
2021/10/14 10:52:39;;;;;;;11.60;8.95;;;13.80;61.60;;;;;;6276360;22;20378;-72
2021/10/14 10:55:15;;;;;;;11.85;7.88;;;13.90;62.10;;;;;;6276474;22;20492;-71
2021/10/14 10:57:49;;;;;;;13.15;8.55;;;13.90;62.10;;;;;;6274742;22;20015;-71
2021/10/14 11:00:16;;;;;;;10.02;7.93;;;14.00;61.10;;;;;;6276374;22;20000;-72
2021/10/14 11:02:43;;;;;;;11.43;7.93;;;14.10;62.20;;;;;;6276166;22;19996;-71
2021/10/14 11:05:09;;;;;;;11.52;8.90;;;14.10;62.70;;;;;;6276189;22;19996;-71
2021/10/14 11:07:35;;;;;;;10.90;8.35;;;14.20;62.50;;;;;;6276126;22;20323;-71
2021/10/14 11:10:01;;;;;;;14.10;9.45;;;14.30;62.20;;;;;;6276371;22;19999;-71
2021/10/14 11:12:27;;;;;;;11.48;8.32;;;14.30;61.30;;;;;;6276037;22;20015;-71
2021/10/14 11:14:52;;;;;;;13.73;9.65;;;14.40;61.70;;;;;;6274781;22;20079;-71
2021/10/14 11:17:18;;;;;;;17.88;9.73;;;14.40;61.00;;;;;;6276109;22;20003;-71
2021/10/14 11:19:45;;;;;;;13.05;9.43;;;14.40;61.30;;;;;;6276079;22;19999;-72
2021/10/14 11:22:18;;;;;;;12.85;8.85;;;14.50;61.40;;;;;;6274597;22;20074;-72
2021/10/14 11:24:45;;;;;;;12.88;8.98;;;14.50;60.00;;;;;;6275804;22;19996;-72
2021/10/14 11:27:19;;;;;;;10.27;7.90;;;14.60;60.60;;;;;;6276133;22;20000;-72
2021/10/14 11:29:46;;;;;;;11.30;8.57;;;14.60;60.80;;;;;;6276264;22;20000;-72
2021/10/14 11:32:16;;;;;;;13.40;8.45;;;14.70;60.40;;;;;;6276104;22;20049;-71
2021/10/14 11:34:42;;;;;;;18.75;8.80;;;14.70;60.10;;;;;;6276159;22;19992;-71
2021/10/14 11:37:10;;;;;;;11.77;8.00;;;14.70;60.60;;;;;;6276046;22;19996;-71
2021/10/14 11:39:48;;;;;;;9.15;7.30;;;14.80;60.20;;;;;;6275968;22;20003;-70
2021/10/14 11:42:18;;;;;;;12.50;8.02;;;14.70;59.80;;;;;;6274339;22;20006;-72
2021/10/14 11:44:47;;;;;;;9.90;7.88;;;14.70;59.90;;;;;;6274350;22;20003;-72
2021/10/14 11:47:17;;;;;;;9.65;7.00;;;14.60;59.70;;;;;;6275401;22;20399;-71
2021/10/14 11:49:44;;;;;;;10.55;8.02;;;14.60;60.10;;;;;;6275715;22;20008;-71
2021/10/14 11:52:12;;;;;;;10.75;7.82;;;14.70;60.30;;;;;;6275720;22;20030;-71
2021/10/14 11:54:38;;;;;;;20.88;8.60;;;14.70;60.80;;;;;;6275899;22;19999;-71
2021/10/14 11:57:06;;;;;;;12.90;8.05;;;14.70;60.40;;;;;;6275898;22;20056;-70
2021/10/14 11:59:34;;;;;;;11.48;8.38;;;14.70;60.20;;;;;;6275920;22;20085;-70
2021/10/14 12:02:14;;;;;;;14.85;7.65;;;14.80;60.40;;;;;;6275489;22;20074;-72
2021/10/14 12:04:47;;;;;;;14.02;8.85;;;14.80;60.50;;;;;;6275619;22;20431;-71
2021/10/14 12:07:20;;;;;;;11.82;7.82;;;14.90;60.60;;;;;;6275880;22;20054;-71
2021/10/14 12:09:47;;;;;;;13.52;8.20;;;14.90;60.20;;;;;;6274272;22;19996;-71
2021/10/14 12:12:20;;;;;;;9.95;7.75;;;14.90;59.80;;;;;;6275487;22;20096;-70
2021/10/14 12:14:47;;;;;;;10.43;7.68;;;14.90;60.20;;;;;;6275832;22;20399;-71
2021/10/14 12:17:18;;;;;;;11.57;8.85;;;15.00;60.60;;;;;;6275655;22;20060;-71
2021/10/14 12:19:47;;;;;;;12.02;9.00;;;15.00;60.20;;;;;;6275858;22;20446;-71
2021/10/14 12:22:18;;;;;;;13.80;9.27;;;14.90;59.50;;;;;;6275581;22;19992;-71
2021/10/14 12:24:53;;;;;;;11.77;9.02;;;14.90;59.10;;;;;;6275596;22;20489;-70
2021/10/14 12:27:18;;;;;;;;;;;14.90;60.00;;;;;;6273194;22;20111;-71
2021/10/14 12:29:50;;;;;;;13.27;8.80;;;14.80;60.10;;;;;;6274055;22;20012;-71
2021/10/14 12:32:18;;;;;;;12.75;8.52;;;14.80;59.70;;;;;;6274484;22;20427;-71
2021/10/14 12:34:56;;;;;;;12.10;9.10;;;14.70;59.40;;;;;;6275095;22;20428;-71
2021/10/14 12:37:31;;;;;;;16.05;9.25;;;14.60;59.30;;;;;;6275969;22;20000;-70
2021/10/14 12:40:20;;;;;;;9.70;7.90;;;14.50;59.40;;;;;;6277641;22;20338;-70